Portada
METAR-TAF:

METAR-TAF

Aeroports :

Andidjan, Uzbekistan

latitud: 40-43-40N, longitud: 072-17-38E, altitud: 462 m

Observació

L'informe es va fer fa 25 hores i 5 minuts, a les 03:00 UTC
Vent 2 kt del Est/Sud-Est
Temperatura -3°C
Humitat 86%
Pressió 1039 hPa
Visibilitat: 5000 m

METAR: UTFA 190300Z 11002KT 5000 NSC M03/M05 Q1039 R88/19//55

Hora: 09:05 (04:05 UTC)

Pronòstic

L'informe es va fer fa 22 hores i 5 minuts, a les 06:00 UTC
Pronòstic vàlid del 19 a les 07 UTC al 19 a les 16 UTC
Vent 10 kt del Nord/Nord-Oest
Visibilitat: 7000 m
Núvols disperses a una alçada de 6000 ft, Cumulonimbus.
Cel ennuvolat a una alçada de 10000 ft
Temporalment
l' 19 a les 07 UTC al 19 a les 16 UTC
Vent 2 kt amb direcció variable
Visibilitat: 3000 m
Cel ennuvolat a una alçada de 2000 ft, Cumulonimbus.
boirina

TAF: UTFA 190600Z 1907/1916 34010KT 7000 SCT060CB BKN100 TEMPO 1907/1916 VRB02KT 3000 BR BKN020CB

Observacions i pronòstics meteorològics de més de 4000 aeroports (METAR i TAF).

Les estacions disponibles són els punts grocs i vermells al mapa.

Posi el ratolí al punt desitjat per veure el nom de l'estació.

Feu clic per veure les observacions i els pronòstics meteorològics.

Per canviar el mapa: feu clic els botons verds amb una creu de color negre per apropar; al botó verd amb un guió per allunyar la imatge; o en les fletxes verdes per a mapes adjacents.


METAR-TAF: